Latest Weather Observations for Hogan Island

IDT60801

Issued at 10:31 pm EST Monday 30 May 2016 (issued every 30 minutes, with the page automatically refreshed every 10 minutes)

About weather observations | Map of weather stations | Latest weather observations for TAS | Other Formats
Station Details ID: 200838 Name: HOGAN ISLAND Lat: -39.22 Lon: 146.98 Height: 116.0 m
Data from the previous 72 hours. | See also: Recent months at Hogan Island
Date/Time
EST
Temp
°C
App
Temp
°C
Dew
Point
Rel
Hum
%
Delta-T
°C
Wind Press
QNH
hPa
Press
MSL
hPa
Rain
since 9 am
mm
Dir
 
Spd
km/h
Gust
km/h
Spd
kts
Gust
kts
30/10:30pm 11.4 8.4 9.3 87 1.1 ENE 15 19 8 10 1029.4 - 1.6
30/10:00pm 11.4 8.0 9.3 87 1.1 NE 17 19 9 10 1029.4 - 1.6
30/09:30pm 11.2 7.5 9.3 88 1.0 NE 19 22 10 12 1029.3 - 1.6
30/09:00pm 11.6 8.0 9.7 88 1.0 ENE 19 24 10 13 1029.0 1029.0 1.6
30/08:30pm 11.4 8.5 9.5 88 1.0 E 15 17 8 9 1028.7 - 1.6
30/08:00pm 11.4 8.0 9.3 87 1.1 ENE 17 20 9 11 1028.7 - 1.6
30/07:30pm 11.6 7.3 9.5 87 1.1 E 22 24 12 13 1028.5 - 1.6
30/07:00pm 11.3 6.2 9.2 87 1.1 E 26 32 14 17 1028.2 - 1.6
30/06:30pm 11.1 9.3 9.5 90 0.8 ENE 9 13 5 7 1028.1 - 1.6
30/06:00pm 10.6 8.7 8.9 89 0.8 NE 9 11 5 6 1027.9 1028.0 1.6
30/05:30pm 10.6 8.3 8.9 89 0.8 ENE 11 15 6 8 1027.6 - 1.6
30/05:00pm 10.7 7.6 8.8 88 0.9 ESE 15 19 8 10 1027.3 - 1.6
30/04:30pm 11.0 6.1 8.6 85 1.2 NE 24 28 13 15 1027.2 - 0.4
30/04:00pm 12.6 10.4 9.4 81 1.6 SE 11 20 6 11 1026.9 - 0.2
30/03:30pm 12.3 10.8 9.1 81 1.6 SSE 7 9 4 5 1026.7 - 0.0
30/03:00pm 12.5 11.2 9.3 81 1.6 SSE 6 9 3 5 1026.5 1026.6 0.0
30/02:30pm 12.2 10.6 8.9 80 1.7 S 7 9 4 5 1026.3 - 0.0
30/02:00pm 12.5 10.6 9.1 80 1.7 S 9 15 5 8 1026.3 - 0.0
30/01:30pm 12.6 10.7 8.9 78 1.9 SSE 9 13 5 7 1026.4 - 0.0
30/01:00pm 13.8 11.0 10.0 78 2.0 SW 15 19 8 10 1026.3 - 0.0
30/12:30pm 13.5 10.8 10.3 81 1.7 SW 15 17 8 9 1026.6 - 0.0
30/12:00pm 12.7 9.9 9.9 83 1.4 SW 15 19 8 10 1026.7 1026.8 0.0
30/11:30am 12.9 9.9 10.6 86 1.2 WSW 17 20 9 11 1026.7 - 0.0
30/11:00am 12.0 8.8 9.9 87 1.1 WSW 17 20 9 11 1026.9 - 0.0
30/10:30am 11.6 7.7 9.5 87 1.1 SW 20 24 11 13 1026.9 - 0.0
30/10:00am 11.6 7.7 9.5 87 1.1 SW 20 24 11 13 1026.6 - 0.0
30/09:30am 11.9 8.3 10.0 88 1.0 WSW 19 24 10 13 1026.3 - 0.0
30/09:00am 11.1 6.8 9.5 90 0.8 WSW 22 26 12 14 1026.0 1026.1 0.0
30/08:30am 10.9 7.0 9.3 90 0.8 WSW 20 24 11 13 1025.8 - 0.0
30/08:00am 10.6 6.1 8.7 88 0.9 SW 22 26 12 14 1025.5 - 0.0
30/07:30am 10.5 5.0 7.7 83 1.4 SW 26 32 14 17 1025.0 - 0.0
30/07:00am 11.3 5.1 7.8 79 1.7 WSW 30 33 16 18 1024.7 - 0.0
30/06:30am 11.3 5.5 7.8 79 1.7 WSW 28 32 15 17 1024.4 - 0.0
30/06:00am 11.1 5.3 7.8 80 1.6 WSW 28 32 15 17 1024.0 1024.0 0.0
30/05:30am 10.7 5.2 7.4 80 1.6 WSW 26 32 14 17 1023.7 - 0.0
30/05:00am 10.7 4.4 7.2 79 1.7 WSW 30 35 16 19 1023.4 - 0.0
30/04:30am 10.8 4.5 7.3 79 1.7 WSW 30 35 16 19 1023.1 - 0.0
30/04:00am 10.9 4.6 7.4 79 1.7 WSW 30 37 16 20 1022.8 - 0.0
30/03:30am 10.8 4.0 7.1 78 1.8 WSW 32 35 17 19 1022.7 - 0.0
30/03:00am 11.0 4.1 7.3 78 1.8 WSW 33 41 18 22 1022.5 1022.5 0.0
30/02:30am 11.0 4.3 7.3 78 1.8 WSW 32 37 17 20 1022.5 - 0.0
30/02:00am 11.1 4.4 7.4 78 1.8 WSW 32 39 17 21 1022.2 - 0.0
30/01:30am 11.2 3.6 7.5 78 1.8 WSW 37 43 20 23 1022.0 - 0.0
30/01:00am 11.3 4.1 7.6 78 1.8 WSW 35 41 19 22 1021.7 - 0.0
30/12:30am 11.3 3.3 7.4 77 1.9 WSW 39 44 21 24 1021.5 - 0.0
30/12:00am 11.4 3.7 7.3 76 2.0 WSW 37 41 20 22 1021.5 1021.5 0.0
 
Date/Time
EST
Temp
°C
App
Temp
°C
Dew
Point
Rel
Hum
%
Delta-T
°C
Wind Press
QNH
hPa
Press
MSL
hPa
Rain
since 9 am
mm
Dir
 
Spd
km/h
Gust
km/h
Spd
kts
Gust
kts
29/11:30pm 11.5 3.5 7.4 76 2.0 WSW 39 44 21 24 1021.3 - 0.0
29/11:00pm 11.5 3.8 7.2 75 2.1 WSW 37 43 20 23 1021.2 - 0.0
29/10:30pm 11.5 3.8 7.0 74 2.2 WSW 37 43 20 23 1021.0 - 0.0
29/10:00pm 11.7 4.8 7.4 75 2.1 WSW 33 39 18 21 1021.1 - 0.0
29/09:30pm 11.7 4.4 7.2 74 2.2 WSW 35 41 19 22 1020.9 - 0.0
29/09:00pm 11.6 4.3 7.1 74 2.2 WSW 35 46 19 25 1020.8 1020.8 0.0
29/08:30pm 11.6 3.5 7.1 74 2.2 WSW 39 44 21 24 1020.5 - 0.0
29/08:00pm 11.6 3.5 6.9 73 2.3 WSW 39 44 21 24 1020.2 - 0.0
29/07:30pm 11.6 3.4 6.7 72 2.3 WSW 39 46 21 25 1019.9 - 0.0
29/07:00pm 11.7 2.8 6.8 72 2.3 WSW 43 50 23 27 1019.3 - 0.0
29/06:30pm 11.6 3.0 6.5 71 2.4 WSW 41 48 22 26 1018.9 - 0.0
29/06:00pm 11.7 2.7 6.4 70 2.5 WSW 43 54 23 29 1018.6 1018.7 0.0
29/05:30pm 11.6 1.9 5.7 67 2.8 WSW 46 52 25 28 1018.3 - 0.0
29/05:00pm 11.7 1.3 6.0 68 2.7 WSW 50 57 27 31 1017.9 - 0.0
29/04:30pm 11.9 1.5 6.0 67 2.8 WSW 50 57 27 31 1017.7 - 0.0
29/04:00pm 12.0 1.6 5.9 66 2.9 WSW 50 57 27 31 1017.4 - 0.0
29/03:30pm 12.2 1.1 6.3 67 2.8 WSW 54 61 29 33 1017.2 - 0.0
29/03:00pm 12.3 0.8 6.1 66 2.9 WSW 56 65 30 35 1016.9 1016.9 0.0
29/02:30pm 13.2 2.0 7.4 68 2.8 WSW 56 65 30 35 1016.6 - 0.0
29/02:00pm 13.4 2.0 7.6 68 2.9 WSW 57 67 31 36 1016.1 - 0.0
29/01:30pm 13.2 1.8 7.4 68 2.8 WSW 57 65 31 35 1015.9 - 0.0
29/01:00pm 12.4 0.5 7.1 70 2.6 WSW 59 67 32 36 1015.6 - 0.0
29/12:30pm 13.4 0.9 7.6 68 2.9 WSW 63 72 34 39 1015.5 - 0.0
29/12:00pm 13.1 0.5 7.3 68 2.8 WSW 63 72 34 39 1015.6 1015.6 0.0
29/11:30am 13.4 1.3 7.8 69 2.8 WSW 61 72 33 39 1015.6 - 0.0
29/11:00am 12.3 0.9 7.4 72 2.4 WSW 57 67 31 36 1015.8 - 0.0
29/10:30am 12.9 0.8 7.6 70 2.6 WSW 61 69 33 37 1015.7 - 0.0
29/10:00am 12.6 1.4 7.5 71 2.5 WSW 56 67 30 36 1015.4 - 0.0
29/09:30am 12.3 0.8 7.2 71 2.5 WSW 57 67 31 36 1015.3 - 0.0
29/09:00am 12.0 0.6 6.9 71 2.5 WSW 56 67 30 36 1015.0 1015.0 0.0
29/08:30am 11.8 0.3 7.1 73 2.3 WSW 57 65 31 35 1014.6 - 0.0
29/08:00am 11.7 0.8 7.2 74 2.2 WSW 54 61 29 33 1014.5 - 0.0
29/07:30am 11.6 0.7 7.1 74 2.2 WSW 54 65 29 35 1014.1 - 0.0
29/07:00am 11.6 0.3 7.3 75 2.1 WSW 56 63 30 34 1013.9 - 0.0
29/06:30am 11.6 0.7 7.1 74 2.2 WSW 54 61 29 33 1013.6 - 0.0
29/06:00am 11.7 0.7 7.0 73 2.3 WSW 54 63 29 34 1013.2 1013.2 0.0
29/05:30am 11.7 0.2 7.0 73 2.3 WSW 57 69 31 37 1012.9 - 0.0
29/05:00am 11.7 -0.5 7.2 74 2.2 WSW 61 69 33 37 1012.5 - 0.0
29/04:30am 11.9 -0.6 7.6 75 2.1 WSW 63 72 34 39 1012.2 - 0.0
29/04:00am 11.9 -1.1 7.4 74 2.2 WSW 65 72 35 39 1011.9 - 0.0
29/03:30am 11.9 -0.6 7.6 75 2.1 WSW 63 74 34 40 1011.6 - 0.0
29/03:00am 12.0 -0.8 7.9 76 2.0 WSW 65 72 35 39 1011.6 1011.6 0.0
29/02:30am 12.0 -0.5 7.9 76 2.0 WSW 63 72 34 39 1011.3 - 0.0
29/02:00am 11.9 -0.1 8.2 78 1.8 WSW 61 70 33 38 1011.3 - 0.0
29/01:30am 12.0 -1.1 8.3 78 1.8 WSW 67 76 36 41 1010.9 - 0.0
29/01:00am 12.1 -1.0 8.4 78 1.8 WSW 67 76 36 41 1010.9 - 0.0
29/12:30am 11.8 -0.9 8.5 80 1.6 WSW 65 76 35 41 1010.6 - 0.0
29/12:00am 11.6 -1.1 8.5 81 1.5 WSW 65 76 35 41 1010.7 1010.8 0.0
 
Date/Time
EST
Temp
°C
App
Temp
°C
Dew
Point
Rel
Hum
%
Delta-T
°C
Wind Press
QNH
hPa
Press
MSL
hPa
Rain
since 9 am
mm
Dir
 
Spd
km/h
Gust
km/h
Spd
kts
Gust
kts
28/11:30pm 12.1 0.2 8.8 80 1.7 WSW 61 72 33 39 1010.9 - 0.0
28/11:00pm 12.0 0.8 8.5 79 1.7 WSW 57 67 31 36 1011.2 - 0.0
28/10:30pm 12.0 0.1 8.7 80 1.7 WSW 61 70 33 38 1010.6 - 0.0
28/10:00pm 11.7 0.6 8.9 83 1.4 WSW 57 70 31 38 1010.9 - 0.0
28/09:30pm 12.0 0.5 8.5 79 1.7 W 59 70 32 38 1010.7 - 0.0
28/09:00pm 11.9 -0.1 8.2 78 1.8 WSW 61 69 33 37 1010.6 1010.7 0.0
28/08:30pm 11.8 -0.3 7.7 76 2.0 WSW 61 70 33 38 1010.5 - 0.0
28/08:00pm 12.0 0.7 8.1 77 1.9 WSW 57 67 31 36 1010.5 - 0.0
28/07:30pm 11.8 0.4 7.7 76 2.0 WSW 57 67 31 36 1010.1 - 0.0
28/07:00pm 11.7 0.3 7.6 76 2.0 WSW 57 65 31 35 1009.9 - 0.0
28/06:30pm 11.5 0.2 7.8 78 1.8 WSW 57 67 31 36 1009.7 - 0.0
28/06:00pm 11.2 0.4 7.7 79 1.7 WSW 54 61 29 33 1009.6 1009.6 0.0
28/05:31pm 10.4 0.2 7.1 80 1.6 WSW 50 69 27 37 1009.4 - 0.0
28/05:30pm 10.3 -0.3 7.0 80 1.6 WSW 52 69 28 37 1009.4 - 0.0
28/05:24pm 11.5 1.8 7.4 76 2.0 WSW 48 69 26 37 1009.1 - 0.0
28/05:00pm 11.5 0.9 6.8 73 2.2 WSW 52 59 28 32 1009.0 - 0.0
28/04:30pm 11.7 0.7 7.0 73 2.3 WSW 54 61 29 33 1008.9 - 0.0
28/04:00pm 12.0 1.8 7.1 72 2.4 WSW 50 57 27 31 1008.8 - 0.0
28/03:30pm 12.1 1.2 7.2 72 2.4 WSW 54 61 29 33 1008.5 - 0.0
28/03:00pm 12.5 2.7 7.0 69 2.7 WSW 48 57 26 31 1008.3 1008.3 0.0
28/02:30pm 12.8 2.6 7.0 68 2.8 WSW 50 57 27 31 1008.1 - 0.0
28/02:00pm 12.4 2.5 6.7 68 2.7 WSW 48 57 26 31 1007.8 - 0.0
28/01:30pm 12.3 3.2 7.0 70 2.6 WSW 44 52 24 28 1007.8 - 0.0
28/01:00pm 12.6 3.7 6.9 68 2.8 SW 43 52 23 28 1007.9 - 0.0
28/12:30pm 12.7 3.6 7.0 68 2.8 SW 44 52 24 28 1007.9 - 0.0
28/12:00pm 13.2 5.6 7.6 69 2.8 WSW 37 48 20 26 1008.0 1008.0 0.0
28/11:30am 12.3 4.6 7.2 71 2.5 SW 37 44 20 24 1008.2 - 0.0
28/11:00am 12.3 5.4 7.4 72 2.4 SW 33 43 18 23 1008.3 - 0.0
28/10:30am 12.6 6.5 8.3 75 2.1 SW 30 35 16 19 1008.4 - 0.0
28/10:00am 12.6 6.6 8.7 77 2.0 SW 30 35 16 19 1008.4 - 0.0
28/09:30am 11.8 6.0 8.1 78 1.8 SW 28 35 15 19 1008.2 - 0.0
28/09:00am 11.5 4.4 8.0 79 1.7 SW 35 41 19 22 1007.9 1007.9 0.0
28/08:30am 11.7 6.5 7.4 75 2.1 SSW 24 32 13 17 1007.9 - 0.0
28/08:00am 11.4 6.3 7.7 78 1.8 SW 24 32 13 17 1007.7 - 0.0
28/07:30am 11.1 6.4 7.8 80 1.6 WSW 22 26 12 14 1007.6 - 0.0
28/07:00am 10.6 4.0 7.8 83 1.4 SW 32 35 17 19 1007.4 - 0.0
28/06:30am 11.0 5.4 7.3 78 1.8 WSW 26 33 14 18 1007.0 - 0.0
28/06:00am 11.6 6.8 7.3 75 2.1 WSW 22 28 12 15 1006.8 1006.8 0.0
28/05:30am 11.0 6.0 6.6 74 2.1 WSW 22 28 12 15 1006.7 - 0.0
28/05:00am 10.8 6.1 6.2 73 2.2 SW 20 26 11 14 1006.6 - 0.0
28/04:30am 10.9 5.9 6.5 74 2.1 SW 22 26 12 14 1006.5 - 0.0
28/04:00am 10.9 5.6 6.6 75 2.0 SW 24 28 13 15 1006.4 - 0.0
28/03:30am 10.8 6.2 6.4 74 2.1 SW 20 26 11 14 1006.5 - 0.0
28/03:00am 10.9 6.3 6.3 73 2.2 SW 20 26 11 14 1006.7 1006.7 0.0
28/02:30am 10.8 5.7 6.2 73 2.2 SW 22 26 12 14 1006.9 - 0.0
28/02:00am 10.9 5.9 6.3 73 2.2 WSW 22 26 12 14 1006.8 - 0.0
28/01:30am 11.1 5.4 6.6 74 2.1 WSW 26 30 14 16 1006.7 - 0.0
28/01:00am 11.0 6.1 6.7 75 2.0 WSW 22 30 12 16 1006.6 - 0.0
28/12:30am 10.9 5.9 6.5 74 2.1 WSW 22 28 12 15 1006.6 - 0.0
28/12:00am 10.8 5.7 6.2 73 2.2 WSW 22 26 12 14 1006.7 1006.7 0.0
 
Date/Time
EST
Temp
°C
App
Temp
°C
Dew
Point
Rel
Hum
%
Delta-T
°C
Wind Press
QNH
hPa
Press
MSL
hPa
Rain
since 9 am
mm
Dir
 
Spd
km/h
Gust
km/h
Spd
kts
Gust
kts
27/11:30pm 10.6 6.1 6.2 74 2.1 WSW 19 24 10 13 1006.9 - 0.0
27/11:00pm 10.6 6.1 6.0 73 2.1 SW 19 22 10 12 1006.9 - 0.0

Other Formats:

Comma delimited format used in spreadsheet applications
http://www.bom.gov.au/fwo/IDT60801/IDT60801.94949.axf

JavaScript Object Notation format (JSON) in row-major order
http://www.bom.gov.au/fwo/IDT60801/IDT60801.94949.json